Time;durP1;ratioP1;P1;durP2;ratioP2;P2;SDS_P1;SDS_P2;PMS_P1;PMS_P2;Temp;Humidity;BMP_temperature;BMP_pressure;BME280_temperature;BME280_humidity;BME280_pressure;Samples;Min_cycle;Max_cycle;Signal;HPM_P1;HPM_P2
2023/12/31 00:00:21;;;;;;;45.22;24.73;;;;;;;3.82;95.91;100476.75;5051733;28;20032;-80
2023/12/31 00:02:47;;;;;;;42.42;26.58;;;;;;;3.83;96.40;100478.41;5051685;28;20020;-79
2023/12/31 00:05:12;;;;;;;46.05;26.70;;;;;;;3.71;96.84;100445.44;5069343;28;20032;-79
2023/12/31 00:07:37;;;;;;;43.50;25.85;;;;;;;3.93;95.97;100465.06;5051688;28;20436;-79
2023/12/31 00:10:05;;;;;;;43.58;24.48;;;;;;;3.71;96.90;100458.63;5069393;28;20027;-79
2023/12/31 00:12:30;;;;;;;42.70;24.88;;;;;;;3.37;99.78;100462.19;5051673;28;20045;-79
2023/12/31 00:14:55;;;;;;;41.17;23.58;;;;;;;3.80;97.42;100468.16;5051058;28;20032;-79
2023/12/31 00:17:21;;;;;;;39.90;24.33;;;;;;;3.48;98.07;100453.97;5069699;28;20036;-79
2023/12/31 00:19:46;;;;;;;39.78;24.98;;;;;;;3.56;98.23;100461.09;5069149;28;20028;-78
2023/12/31 00:22:12;;;;;;;39.35;23.42;;;;;;;3.97;96.11;100461.91;5051250;28;20031;-79
2023/12/31 00:24:37;;;;;;;40.28;24.02;;;;;;;3.33;99.19;100460.88;5068979;28;20037;-80
2023/12/31 00:27:02;;;;;;;57.97;29.77;;;;;;;3.12;100.00;100458.69;5051252;28;20047;-79
2023/12/31 00:29:31;;;;;;;68.60;34.35;;;;;;;3.48;98.74;100479.53;5069339;28;20032;-79
2023/12/31 00:31:56;;;;;;;;;;;;;;;3.71;97.65;100495.53;5051085;28;20040;-79
2023/12/31 00:34:22;;;;;;;62.10;33.88;;;;;;;3.94;96.91;100482.50;5050733;28;19915;-79
2023/12/31 00:36:47;;;;;;;72.20;35.00;;;;;;;3.42;98.43;100465.19;5051189;28;20085;-79
2023/12/31 00:39:13;;;;;;;55.03;30.25;;;;;;;3.79;98.70;100495.56;5069198;28;20032;-79
2023/12/31 00:41:38;;;;;;;46.33;26.05;;;;;;;3.81;99.00;100480.38;5051208;28;20031;-80
2023/12/31 00:44:03;;;;;;;43.88;26.30;;;;;;;3.85;97.63;100470.34;5050826;28;20405;-80
2023/12/31 00:46:29;;;;;;;40.17;24.83;;;;;;;3.73;96.87;100473.28;5068591;28;20036;-79
2023/12/31 00:48:54;;;;;;;42.72;24.45;;;;;;;3.03;99.76;100459.66;5069009;28;20024;-79
2023/12/31 00:51:19;;;;;;;41.83;23.55;;;;;;;3.32;96.42;100464.50;5069217;28;20075;-79
2023/12/31 00:53:45;;;;;;;32.95;22.65;;;;;;;3.42;98.05;100465.19;5051184;28;20024;-79
2023/12/31 00:56:10;;;;;;;41.72;24.55;;;;;;;3.83;96.66;100481.03;5068921;28;20120;-79
2023/12/31 00:58:36;;;;;;;39.90;25.10;;;;;;;3.83;96.37;100457.28;5068988;28;20051;-79
2023/12/31 01:01:02;;;;;;;42.47;26.25;;;;;;;3.82;95.96;100467.03;5050677;28;20123;-79
2023/12/31 01:03:27;;;;;;;37.28;23.38;;;;;;;3.49;97.75;100429.25;5069324;28;20059;-79
2023/12/31 01:05:52;;;;;;;38.08;23.80;;;;;;;3.93;96.42;100484.34;5068883;28;20108;-79
2023/12/31 01:08:18;;;;;;;42.72;24.88;;;;;;;3.93;96.68;100463.22;5057894;28;20036;-79
2023/12/31 01:10:43;;;;;;;36.70;23.10;;;;;;;4.25;95.82;100489.75;5069054;28;20035;-79
2023/12/31 01:13:09;;;;;;;42.88;23.20;;;;;;;3.99;96.70;100469.66;5087352;28;20058;-79
2023/12/31 01:15:34;;;;;;;38.72;22.67;;;;;;;4.03;96.88;100479.72;5077637;28;20024;-79
2023/12/31 01:18:00;;;;;;;37.55;22.58;;;;;;;4.14;96.34;100483.00;5082162;28;20032;-79
2023/12/31 01:20:25;;;;;;;40.90;23.17;;;;;;;3.89;97.17;100461.91;5088067;28;20040;-79
2023/12/31 01:22:51;;;;;;;38.53;22.63;;;;;;;4.12;96.56;100477.06;5088656;28;20081;-79
2023/12/31 01:25:16;;;;;;;33.33;22.15;;;;;;;3.90;97.03;100441.63;5080740;28;20039;-79
2023/12/31 01:27:41;;;;;;;34.60;21.77;;;;;;;4.17;97.43;100482.69;5085701;28;20050;-79
2023/12/31 01:30:07;;;;;;;38.60;24.08;;;;;;;4.03;97.72;100463.88;5086201;28;20020;-79
2023/12/31 01:32:32;;;;;;;36.97;22.58;;;;;;;3.55;100.00;100460.25;5085485;28;20089;-79
2023/12/31 01:34:58;;;;;;;37.45;22.77;;;;;;;3.69;100.00;100460.59;5085955;28;20058;-79
2023/12/31 01:37:24;;;;;;;38.42;24.58;;;;;;;3.80;98.89;100476.06;5078302;28;20029;-79
2023/12/31 01:39:49;;;;;;;36.25;22.33;;;;;;;3.46;100.00;100458.59;5097159;28;20059;-79
2023/12/31 01:42:15;;;;;;;50.92;27.55;;;;;;;3.84;99.37;100464.19;5099190;28;20044;-79
2023/12/31 01:44:40;;;;;;;46.50;26.98;;;;;;;3.97;97.25;100451.34;5101856;28;20024;-78
2023/12/31 01:47:06;;;;;;;46.03;26.60;;;;;;;4.03;96.83;100457.78;5082379;28;20074;-79
2023/12/31 01:49:32;;;;;;;60.75;33.47;;;;;;;4.10;96.68;100471.13;5096782;28;20083;-79
2023/12/31 01:51:58;;;;;;;49.42;27.88;;;;;;;4.12;96.47;100466.50;5100516;28;20020;-78
2023/12/31 01:54:24;;;;;;;47.08;26.85;;;;;;;3.87;96.43;100436.69;5098869;28;20031;-79
2023/12/31 01:56:51;;;;;;;38.47;24.70;;;;;;;4.26;95.58;100473.75;5061020;28;20040;-79
2023/12/31 01:59:17;;;;;;;43.22;26.20;;;;;;;4.15;96.37;100477.56;5086752;28;20416;-78
2023/12/31 02:01:45;;;;;;;43.60;24.98;;;;;;;3.85;98.14;100460.59;5076043;28;20020;-78
2023/12/31 02:04:10;;;;;;;40.50;23.25;;;;;;;3.68;98.67;100435.19;5093269;28;20505;-79
2023/12/31 02:06:36;;;;;;;40.67;23.00;;;;;;;3.40;99.25;100457.41;5056855;28;20206;-79
2023/12/31 02:09:02;;;;;;;41.40;23.83;;;;;;;3.01;100.00;100444.00;5061170;28;20403;-79
2023/12/31 02:11:27;;;;;;;37.13;22.90;;;;;;;2.83;100.00;100438.00;5072311;28;20044;-78
2023/12/31 02:13:53;;;;;;;37.17;22.35;;;;;;;2.84;100.00;100429.13;5054296;28;20400;-79
2023/12/31 02:16:19;;;;;;;40.88;23.60;;;;;;;3.11;99.50;100420.97;5053915;28;20516;-80
2023/12/31 02:18:44;;;;;;;39.53;24.38;;;;;;;3.49;97.85;100445.06;5055701;28;20078;-80
2023/12/31 02:21:13;;;;;;;45.58;25.45;;;;;;;3.55;98.32;100470.78;5071862;28;20024;-79
2023/12/31 02:23:40;;;;;;;37.50;22.38;;;;;;;3.13;99.37;100439.25;5071973;28;20020;-79
2023/12/31 02:26:10;;;;;;;39.55;22.45;;;;;;;3.09;99.97;100417.66;5066374;28;20032;-80
2023/12/31 02:28:36;;;;;;;43.33;24.25;;;;;;;3.72;95.67;100439.16;5072035;28;20036;-79
2023/12/31 02:31:03;;;;;;;39.03;23.02;;;;;;;3.64;95.82;100466.38;5053567;28;20063;-79
2023/12/31 02:33:28;;;;;;;39.53;22.20;;;;;;;3.38;98.62;100469.13;5053930;28;20189;-79
2023/12/31 02:35:54;;;;;;;39.42;23.83;;;;;;;3.49;98.06;100455.63;5053116;28;20115;-79
2023/12/31 02:38:19;;;;;;;37.45;23.60;;;;;;;2.94;100.00;100441.19;5071220;28;20090;-79
2023/12/31 02:40:44;;;;;;;37.97;21.63;;;;;;;3.04;99.12;100442.84;5071655;28;20374;-79
2023/12/31 02:43:10;;;;;;;33.88;21.75;;;;;;;2.57;100.00;100399.38;5053297;28;20025;-79
2023/12/31 02:45:36;;;;;;;36.72;20.92;;;;;;;2.89;100.00;100434.75;5071325;28;20103;-80
2023/12/31 02:48:01;;;;;;;38.97;22.08;;;;;;;3.33;97.79;100435.34;5071149;28;20037;-79
2023/12/31 02:50:27;;;;;;;36.75;22.08;;;;;;;3.09;99.83;100459.00;5071269;28;20032;-79
2023/12/31 02:52:53;;;;;;;37.45;23.20;;;;;;;3.20;98.76;100441.06;5053140;28;20024;-79
2023/12/31 02:55:19;;;;;;;42.72;23.77;;;;;;;3.26;98.34;100434.34;5070555;28;20044;-79
2023/12/31 02:57:45;;;;;;;39.38;22.63;;;;;;;2.99;100.00;100445.97;5070801;28;20074;-79
2023/12/31 03:00:11;;;;;;;36.40;22.25;;;;;;;3.00;100.00;100455.50;5052878;28;20033;-79
2023/12/31 03:02:37;;;;;;;36.30;23.08;;;;;;;2.84;100.00;100450.19;5071109;28;20167;-79
2023/12/31 03:05:02;;;;;;;33.88;21.05;;;;;;;2.80;100.00;100450.50;5070953;28;20107;-79
2023/12/31 03:07:28;;;;;;;41.60;21.95;;;;;;;2.82;100.00;100463.53;5052548;28;20021;-79
2023/12/31 03:09:53;;;;;;;39.85;23.98;;;;;;;2.92;100.00;100463.38;5057749;28;20508;-79
2023/12/31 03:12:19;;;;;;;47.65;26.90;;;;;;;2.88;100.00;100462.06;5081397;28;20054;-79
2023/12/31 03:14:44;;;;;;;57.55;29.52;;;;;;;3.01;99.65;100420.28;5091005;28;20016;-79
2023/12/31 03:17:09;;;;;;;56.72;29.45;;;;;;;2.99;100.00;100470.50;5062337;28;20036;-79
2023/12/31 03:19:36;;;;;;;45.28;24.42;;;;;;;2.58;100.00;100462.44;5059585;28;20496;-79
2023/12/31 03:22:02;;;;;;;40.20;22.58;;;;;;;2.99;100.00;100480.22;5090877;28;20028;-79
2023/12/31 03:24:27;;;;;;;47.60;28.83;;;;;;;2.98;100.00;100460.13;5091131;28;20477;-80
2023/12/31 03:26:53;;;;;;;54.30;30.00;;;;;;;2.92;100.00;100444.94;5083560;28;20032;-79
2023/12/31 03:29:19;;;;;;;47.60;29.95;;;;;;;3.05;100.00;100466.41;5071368;28;20093;-79
2023/12/31 03:31:44;;;;;;;53.63;32.00;;;;;;;3.31;100.00;100462.84;5090747;28;20032;-79
2023/12/31 03:34:10;;;;;;;47.38;30.05;;;;;;;3.32;99.75;100456.59;5090439;28;20032;-78
2023/12/31 03:36:35;;;;;;;56.55;29.67;;;;;;;3.53;98.57;100472.75;5087618;28;20109;-79
2023/12/31 03:39:01;;;;;;;52.78;30.38;;;;;;;3.45;98.79;100474.56;5079848;28;20036;-79
2023/12/31 03:41:26;;;;;;;68.03;35.13;;;;;;;3.28;99.14;100465.81;5070293;28;20081;-79
2023/12/31 03:43:51;;;;;;;58.50;33.03;;;;;;;3.18;100.00;100484.41;5051953;28;20088;-79
2023/12/31 03:46:17;;;;;;;70.35;33.80;;;;;;;3.31;99.80;100476.00;5070403;28;20119;-79
2023/12/31 03:48:42;;;;;;;80.18;39.92;;;;;;;3.16;99.57;100444.19;5051785;28;20455;-79
2023/12/31 03:51:09;;;;;;;69.55;38.08;;;;;;;3.36;100.00;100487.72;5070278;28;20060;-79
2023/12/31 03:53:34;;;;;;;63.63;35.60;;;;;;;3.07;100.00;100461.81;5052136;28;20566;-79
2023/12/31 03:56:00;;;;;;;62.53;34.15;;;;;;;2.97;100.00;100471.66;5052133;28;20024;-80
2023/12/31 03:58:25;;;;;;;60.88;34.85;;;;;;;3.26;100.00;100459.88;5069572;28;20499;-79
2023/12/31 04:00:51;;;;;;;58.40;33.20;;;;;;;2.96;100.00;100451.53;5069527;28;20053;-79
2023/12/31 04:03:16;;;;;;;66.32;36.17;;;;;;;2.90;100.00;100466.19;5051982;28;20021;-79
2023/12/31 04:05:41;;;;;;;59.10;33.45;;;;;;;2.94;100.00;100482.50;5069655;28;20025;-79
2023/12/31 04:08:07;;;;;;;62.40;31.70;;;;;;;3.02;100.00;100464.06;5051393;28;20033;-78
2023/12/31 04:10:32;;;;;;;56.88;32.80;;;;;;;3.03;100.00;100496.53;5075672;28;20032;-79
2023/12/31 04:12:58;;;;;;;68.68;34.58;;;;;;;3.11;100.00;100457.03;5068140;28;20054;-80
2023/12/31 04:15:23;;;;;;;67.00;36.80;;;;;;;2.91;100.00;100467.84;5069212;28;20031;-79
2023/12/31 04:17:49;;;;;;;68.28;38.95;;;;;;;3.26;100.00;100470.41;5051419;28;20417;-78
2023/12/31 04:20:14;;;;;;;268.02;147.13;;;;;;;3.03;100.00;100434.13;5069291;28;20033;-79
2023/12/31 04:22:40;;;;;;;73.47;43.47;;;;;;;3.45;100.00;100475.38;5068159;28;20083;-79
2023/12/31 04:25:05;;;;;;;62.30;34.83;;;;;;;3.57;100.00;100484.63;5068058;28;20501;-79
2023/12/31 04:27:31;;;;;;;287.10;125.72;;;;;;;3.59;100.00;100476.56;5066790;28;20052;-79
2023/12/31 04:29:57;;;;;;;178.85;83.78;;;;;;;3.67;100.00;100504.78;5063674;28;20106;-79
2023/12/31 04:32:25;;;;;;;101.93;51.78;;;;;;;3.51;100.00;100501.09;5069395;28;20116;-79
2023/12/31 04:34:51;;;;;;;90.43;47.13;;;;;;;3.55;100.00;100497.16;5051473;28;20040;-79
2023/12/31 04:37:16;;;;;;;83.88;42.53;;;;;;;3.68;100.00;100495.84;5069034;28;20029;-79
2023/12/31 04:39:41;;;;;;;102.78;49.85;;;;;;;3.78;100.00;100496.53;5051064;28;20493;-79
2023/12/31 04:42:07;;;;;;;86.28;43.92;;;;;;;3.31;100.00;100483.91;5069362;28;20064;-79
2023/12/31 04:44:32;;;;;;;71.10;39.08;;;;;;;2.95;100.00;100499.97;5068974;28;20472;-79
2023/12/31 04:46:58;;;;;;;66.13;37.03;;;;;;;3.36;100.00;100508.00;5067799;28;20036;-79
2023/12/31 04:49:23;;;;;;;62.72;36.70;;;;;;;3.14;100.00;100473.34;5053074;28;20077;-79
2023/12/31 04:51:48;;;;;;;61.97;33.95;;;;;;;3.46;100.00;100535.06;5068219;28;20028;-80
2023/12/31 04:54:14;;;;;;;62.88;36.05;;;;;;;3.41;100.00;100526.78;5068378;28;20056;-80
2023/12/31 04:56:39;;;;;;;67.57;34.95;;;;;;;3.39;100.00;100523.50;5068729;28;20028;-80
2023/12/31 04:59:05;;;;;;;62.30;38.83;;;;;;;3.22;100.00;100514.72;5068542;28;20374;-79
2023/12/31 05:01:34;;;;;;;65.35;38.25;;;;;;;3.04;100.00;100535.06;5068114;28;20033;-80
2023/12/31 05:04:01;;;;;;;69.93;40.85;;;;;;;2.90;100.00;100513.63;5050404;28;20017;-79
2023/12/31 05:06:26;;;;;;;68.07;39.28;;;;;;;2.93;100.00;100480.84;5050316;28;20028;-80
2023/12/31 05:08:52;;;;;;;66.90;40.50;;;;;;;3.05;100.00;100521.75;5068155;28;20055;-80
2023/12/31 05:11:18;;;;;;;67.13;39.38;;;;;;;3.12;100.00;100532.47;5067788;28;20036;-79
2023/12/31 05:13:44;;;;;;;61.17;38.88;;;;;;;2.80;100.00;100518.19;5050336;28;20471;-79
2023/12/31 05:16:13;;;;;;;58.33;34.95;;;;;;;2.65;100.00;100517.91;5067828;28;20584;-79
2023/12/31 05:18:46;;;;;;;62.35;35.72;;;;;;;2.77;100.00;100502.69;5067684;28;20028;-79
2023/12/31 05:21:12;;;;;;;72.50;38.70;;;;;;;2.89;100.00;100495.34;5049655;28;20487;-79
2023/12/31 05:23:37;;;;;;;71.45;38.83;;;;;;;2.94;100.00;100508.84;5068414;28;20405;-78
2023/12/31 05:26:04;;;;;;;60.63;31.88;;;;;;;2.74;100.00;100503.00;5068131;28;20032;-80
2023/12/31 05:28:29;;;;;;;63.83;33.15;;;;;;;2.93;100.00;100536.19;5050055;28;20077;-78
2023/12/31 05:30:55;;;;;;;58.88;33.60;;;;;;;2.96;100.00;100512.13;5050136;28;20397;-80
2023/12/31 05:33:20;;;;;;;49.42;30.55;;;;;;;2.68;100.00;100517.63;5067690;28;20025;-78
2023/12/31 05:35:45;;;;;;;55.35;31.02;;;;;;;2.70;100.00;100501.66;5067822;28;20107;-78
2023/12/31 05:38:11;;;;;;;51.97;30.40;;;;;;;2.46;100.00;100481.28;5049982;28;20032;-79
2023/12/31 05:40:36;;;;;;;50.83;30.40;;;;;;;2.71;100.00;100498.84;5067526;28;20028;-78
2023/12/31 05:43:02;;;;;;;49.30;29.73;;;;;;;2.80;100.00;100526.09;5068038;28;20036;-79
2023/12/31 05:45:27;;;;;;;52.13;29.08;;;;;;;2.81;100.00;100517.19;5050043;28;20028;-79
2023/12/31 05:47:52;;;;;;;53.55;30.17;;;;;;;2.62;100.00;100489.28;5067795;28;20493;-78
2023/12/31 05:50:18;;;;;;;51.13;28.67;;;;;;;3.01;100.00;100515.13;5049178;28;20033;-78
2023/12/31 05:52:44;;;;;;;46.47;27.00;;;;;;;2.94;100.00;100493.88;5052620;28;20082;-78
2023/12/31 05:55:09;;;;;;;50.55;28.20;;;;;;;2.88;100.00;100493.66;5068181;28;20036;-79
2023/12/31 05:57:35;;;;;;;53.90;29.25;;;;;;;3.08;100.00;100505.59;5068569;28;20021;-79
2023/12/31 06:00:02;;;;;;;55.80;30.15;;;;;;;2.86;100.00;100495.63;5049494;28;20028;-79
2023/12/31 06:02:27;;;;;;;49.80;28.42;;;;;;;2.81;100.00;100489.03;5068040;28;20051;-79
2023/12/31 06:04:53;;;;;;;54.42;28.60;;;;;;;3.04;100.00;100508.72;5068105;28;20064;-79
2023/12/31 06:07:18;;;;;;;49.55;28.50;;;;;;;3.11;100.00;100523.75;5050435;28;20027;-80
2023/12/31 06:09:45;;;;;;;60.60;30.48;;;;;;;3.19;100.00;100507.97;5067849;28;20036;-80
2023/12/31 06:12:10;;;;;;;52.28;31.52;;;;;;;3.17;100.00;100512.56;5053849;28;20049;-80
2023/12/31 06:14:35;;;;;;;53.03;31.23;;;;;;;3.27;100.00;100515.06;5067826;28;20032;-80
2023/12/31 06:17:01;;;;;;;57.67;30.25;;;;;;;3.38;100.00;100514.75;5068008;28;20048;-80
2023/12/31 06:19:26;;;;;;;49.55;30.52;;;;;;;3.32;100.00;100525.13;5067667;28;20035;-79
2023/12/31 06:21:52;;;;;;;56.05;30.35;;;;;;;3.44;100.00;100521.22;5049561;28;20110;-80
2023/12/31 06:24:17;;;;;;;56.83;31.48;;;;;;;3.79;100.00;100548.31;5066931;28;20033;-79
2023/12/31 06:26:43;;;;;;;52.65;31.13;;;;;;;3.13;100.00;100513.88;5067960;28;20093;-79
2023/12/31 06:29:08;;;;;;;56.28;34.30;;;;;;;3.00;100.00;100518.75;5068774;28;20425;-79
2023/12/31 06:31:34;;;;;;;59.10;32.53;;;;;;;2.97;100.00;100508.53;5070957;28;20047;-79
2023/12/31 06:33:59;;;;;;;56.72;32.63;;;;;;;3.31;100.00;100526.09;5070920;28;21086;-79
2023/12/31 06:36:24;;;;;;;55.47;31.27;;;;;;;2.91;100.00;100488.91;5071868;28;20025;-79
2023/12/31 06:38:50;;;;;;;61.42;33.92;;;;;;;3.19;100.00;100539.59;5053399;28;20485;-79
2023/12/31 06:41:19;;;;;;;58.13;33.15;;;;;;;3.20;100.00;100520.13;5068051;28;20504;-79
2023/12/31 06:43:44;;;;;;;68.95;37.67;;;;;;;3.48;100.00;100554.19;5053135;28;20032;-79
2023/12/31 06:46:10;;;;;;;76.45;41.78;;;;;;;3.58;100.00;100525.84;5053305;28;20039;-79
2023/12/31 06:48:35;;;;;;;91.38;44.75;;;;;;;3.92;100.00;100545.19;5071150;28;20587;-79
2023/12/31 06:51:00;;;;;;;98.15;50.03;;;;;;;3.72;100.00;100511.22;5070758;28;20103;-79
2023/12/31 06:53:26;;;;;;;103.72;53.88;;;;;;;4.00;100.00;100561.88;5053106;28;20111;-79
2023/12/31 06:55:51;;;;;;;97.93;52.58;;;;;;;3.79;100.00;100528.03;5070879;28;20477;-79
2023/12/31 06:58:16;;;;;;;104.10;55.13;;;;;;;3.59;100.00;100503.75;5070511;28;20078;-79
2023/12/31 07:00:42;;;;;;;99.45;53.25;;;;;;;3.78;100.00;100549.28;5052229;28;20484;-79
2023/12/31 07:03:07;;;;;;;104.10;57.92;;;;;;;3.77;100.00;100553.75;5070520;28;20060;-79
2023/12/31 07:05:35;;;;;;;84.03;47.08;;;;;;;3.74;100.00;100518.94;5052618;28;20044;-78
2023/12/31 07:08:01;;;;;;;108.47;56.03;;;;;;;3.86;100.00;100554.56;5070546;28;20020;-78
2023/12/31 07:10:26;;;;;;;106.45;56.15;;;;;;;4.14;100.00;100555.09;5052107;28;20036;-78
2023/12/31 07:12:52;;;;;;;116.05;63.53;;;;;;;4.26;100.00;100574.06;5070553;28;20077;-78
2023/12/31 07:15:18;;;;;;;95.20;56.20;;;;;;;4.69;98.55;100579.97;5070676;28;20024;-78
2023/12/31 07:17:43;;;;;;;76.93;45.17;;;;;;;4.40;98.86;100565.50;5070091;28;20408;-78
2023/12/31 07:20:10;;;;;;;99.45;61.22;;;;;;;4.54;98.54;100555.25;5069612;28;20655;-78
2023/12/31 07:22:37;;;;;;;113.95;68.68;;;;;;;4.80;95.90;100550.56;5051953;28;20124;-79
2023/12/31 07:25:04;;;;;;;105.43;63.50;;;;;;;4.73;100.00;100560.16;5070111;28;20025;-78
2023/12/31 07:27:29;;;;;;;119.28;62.35;;;;;;;4.91;100.00;100567.06;5051839;28;20051;-79
2023/12/31 07:29:55;;;;;;;139.07;72.90;;;;;;;4.86;100.00;100564.09;5069830;28;20051;-78
2023/12/31 07:32:20;;;;;;;139.88;75.22;;;;;;;5.05;100.00;100569.00;5051618;28;20111;-78
2023/12/31 07:34:45;;;;;;;121.38;68.10;;;;;;;4.70;100.00;100557.03;5054443;28;20020;-78
2023/12/31 07:37:11;;;;;;;96.20;57.25;;;;;;;4.63;100.00;100549.78;5051760;28;20477;-78
2023/12/31 07:39:36;;;;;;;94.68;57.38;;;;;;;5.01;100.00;100568.50;5069554;28;20017;-78
2023/12/31 07:42:04;;;;;;;74.03;44.88;;;;;;;4.48;100.00;100558.56;5050945;28;20409;-79
2023/12/31 07:44:29;;;;;;;60.45;38.35;;;;;;;4.58;100.00;100589.09;5069651;28;20024;-78
2023/12/31 07:46:55;;;;;;;59.50;39.30;;;;;;;4.70;100.00;100584.28;5051252;28;20033;-79
2023/12/31 07:49:20;;;;;;;68.40;41.40;;;;;;;4.89;100.00;100600.78;5051525;28;20037;-78
2023/12/31 07:51:45;;;;;;;61.53;37.13;;;;;;;4.81;100.00;100589.22;5068876;28;20386;-78
2023/12/31 07:54:11;;;;;;;51.85;32.10;;;;;;;4.67;100.00;100571.41;5051842;28;20028;-78
2023/12/31 07:56:36;;;;;;;50.78;32.90;;;;;;;4.66;100.00;100566.28;5069496;28;20051;-79
2023/12/31 07:59:03;;;;;;;52.25;33.15;;;;;;;4.82;100.00;100606.72;5051395;28;20038;-78
2023/12/31 08:01:28;;;;;;;54.83;34.83;;;;;;;5.02;100.00;100606.34;5068916;28;20032;-78
2023/12/31 08:03:54;;;;;;;55.78;35.20;;;;;;;4.95;100.00;100600.91;5069706;28;20420;-78
2023/12/31 08:06:19;;;;;;;62.30;37.80;;;;;;;5.12;100.00;100592.94;5069843;28;20028;-78
2023/12/31 08:08:44;;;;;;;54.20;32.22;;;;;;;5.11;100.00;100599.19;5069777;28;20085;-79
2023/12/31 08:11:12;;;;;;;55.90;34.72;;;;;;;5.53;100.00;100622.69;5068946;28;20177;-79
2023/12/31 08:13:38;;;;;;;52.80;34.13;;;;;;;5.70;98.27;100598.78;5069549;28;20028;-79
2023/12/31 08:16:05;;;;;;;53.03;36.08;;;;;;;5.77;99.07;100627.03;5069849;28;20090;-78
2023/12/31 08:18:30;;;;;;;50.05;31.77;;;;;;;5.63;99.47;100615.38;5069841;28;20099;-78
2023/12/31 08:20:56;;;;;;;53.00;32.17;;;;;;;5.95;98.14;100624.16;5068645;28;20128;-78
2023/12/31 08:23:21;;;;;;;47.58;31.67;;;;;;;5.86;96.13;100571.41;5069359;28;20028;-78
2023/12/31 08:25:47;;;;;;;63.55;38.08;;;;;;;6.16;94.84;100610.28;5069457;28;20186;-78
2023/12/31 08:28:12;;;;;;;62.53;38.67;;;;;;;6.25;95.91;100619.00;5069376;28;20122;-79
2023/12/31 08:30:37;;;;;;;53.40;33.70;;;;;;;6.33;97.23;100613.63;5069040;28;20028;-79
2023/12/31 08:33:03;;;;;;;53.33;33.75;;;;;;;6.33;96.72;100620.75;5068766;28;20056;-78
2023/12/31 08:35:28;;;;;;;49.80;31.95;;;;;;;6.30;97.20;100600.75;5069198;28;20565;-79
2023/12/31 08:37:53;;;;;;;55.88;32.50;;;;;;;6.86;98.02;100612.84;5069390;28;20028;-78
2023/12/31 08:40:19;;;;;;;50.63;31.63;;;;;;;6.74;93.43;100600.06;5067710;28;20527;-78
2023/12/31 08:42:45;;;;;;;45.38;30.35;;;;;;;7.09;92.62;100600.34;5068477;28;20029;-78
2023/12/31 08:45:11;;;;;;;52.33;31.13;;;;;;;7.11;91.67;100619.56;5059031;28;20040;-78
2023/12/31 08:47:38;;;;;;;53.58;32.85;;;;;;;7.20;91.83;100613.16;5069101;28;20578;-78
2023/12/31 08:50:08;;;;;;;43.25;29.58;;;;;;;7.20;91.99;100597.22;5067348;28;20115;-79
2023/12/31 08:52:40;;;;;;;74.72;52.58;;;;;;;7.56;92.31;100627.47;5067686;28;20024;-79
2023/12/31 08:55:07;;;;;;;48.63;31.30;;;;;;;7.62;89.99;100618.78;5068700;28;20493;-78
2023/12/31 08:57:33;;;;;;;77.85;53.00;;;;;;;7.58;89.85;100615.69;5067488;28;20093;-78
2023/12/31 08:59:58;;;;;;;55.72;36.97;;;;;;;8.03;86.83;100621.72;5068645;28;20041;-78
2023/12/31 09:02:24;;;;;;;42.53;27.33;;;;;;;7.69;87.93;100616.22;5058430;28;20024;-79
2023/12/31 09:04:49;;;;;;;43.25;27.85;;;;;;;7.73;89.30;100602.38;5068735;28;20504;-78
2023/12/31 09:07:14;;;;;;;58.40;36.95;;;;;;;7.81;88.46;100594.31;5068476;28;20052;-79
2023/12/31 09:09:40;;;;;;;44.30;31.90;;;;;;;7.76;88.64;100570.13;5067174;28;20104;-79
2023/12/31 09:12:06;;;;;;;52.47;31.13;;;;;;;7.94;87.58;100576.84;5067854;28;20048;-78
2023/12/31 09:14:32;;;;;;;46.72;30.75;;;;;;;8.45;86.47;100585.53;5068198;28;20048;-79
2023/12/31 09:16:58;;;;;;;49.80;32.85;;;;;;;8.91;84.77;100594.03;5050405;28;20037;-79
2023/12/31 09:19:24;;;;;;;51.47;32.08;;;;;;;9.19;80.39;100580.69;5068090;28;20040;-78
2023/12/31 09:21:49;;;;;;;55.13;34.58;;;;;;;9.27;79.96;100545.94;5048607;28;20568;-78
2023/12/31 09:24:14;;;;;;;65.10;38.22;;;;;;;9.97;77.58;100577.69;5068816;28;20456;-78
2023/12/31 09:26:40;;;;;;;60.63;38.53;;;;;;;10.06;74.84;100560.50;5086223;28;20115;-78
2023/12/31 09:29:05;;;;;;;63.83;41.75;;;;;;;9.70;76.68;100555.50;5070489;28;20055;-78
2023/12/31 09:31:31;;;;;;;53.83;35.20;;;;;;;9.52;77.82;100580.88;5087471;28;20107;-78
2023/12/31 09:33:56;;;;;;;55.55;35.47;;;;;;;9.40;79.75;100577.94;5067761;28;20039;-78
2023/12/31 09:36:22;;;;;;;75.65;44.17;;;;;;;9.31;78.97;100547.19;5068230;28;20031;-78
2023/12/31 09:38:47;;;;;;;57.55;36.10;;;;;;;9.45;80.87;100582.66;5068194;28;20028;-79
2023/12/31 09:41:23;;;;;;;55.70;36.10;;;;;;;9.36;80.88;100559.91;5068260;28;20017;-78
2023/12/31 09:43:51;;;;;;;54.22;34.42;;;;;;;9.84;79.41;100586.47;5068096;28;20021;-78
2023/12/31 09:46:19;;;;;;;;;;;;;;;9.79;79.89;100583.63;5064244;28;20063;-78
2023/12/31 09:48:44;;;;;;;54.47;36.33;;;;;;;9.79;79.92;100559.63;5070520;28;19915;-79
2023/12/31 09:51:09;;;;;;;55.10;36.33;;;;;;;9.94;80.63;100552.28;5088468;28;20040;-79
2023/12/31 09:53:37;;;;;;;50.33;35.92;;;;;;;10.34;77.96;100568.34;5072389;28;20043;-79
2023/12/31 09:56:05;;;;;;;50.10;33.85;;;;;;;10.35;77.11;100561.97;5050140;28;20044;-78
2023/12/31 09:58:32;;;;;;;50.90;30.88;;;;;;;10.01;77.86;100547.78;5068763;28;20521;-77
2023/12/31 10:00:58;;;;;;;39.55;26.63;;;;;;;10.28;76.75;100566.47;5067775;28;20056;-78
2023/12/31 10:03:26;;;;;;;34.35;22.45;;;;;;;10.26;77.57;100576.53;5069009;28;20508;-77
2023/12/31 10:05:52;;;;;;;30.63;20.98;;;;;;;10.08;78.15;100546.97;5061072;28;20488;-77
2023/12/31 10:08:19;;;;;;;38.42;27.27;;;;;;;10.35;75.63;100537.97;5092048;28;20032;-77
2023/12/31 10:10:45;;;;;;;36.75;26.40;;;;;;;10.37;76.28;100535.94;5092147;28;20043;-79
2023/12/31 10:13:15;;;;;;;28.08;20.85;;;;;;;10.14;77.34;100535.50;5081614;28;20516;-78
2023/12/31 10:15:40;;;;;;;32.90;21.10;;;;;;;10.14;76.93;100540.84;5071305;28;20067;-78
2023/12/31 10:18:08;;;;;;;30.13;21.27;;;;;;;10.34;76.91;100547.03;5071341;28;20111;-76
2023/12/31 10:20:36;;;;;;;32.33;21.00;;;;;;;10.59;75.81;100554.38;5071067;28;20025;-77
2023/12/31 10:23:02;;;;;;;52.85;35.42;;;;;;;10.45;75.50;100527.72;5071251;28;20271;-77
2023/12/31 10:25:28;;;;;;;39.80;27.33;;;;;;;10.10;75.30;100502.28;5072609;28;20044;-77
2023/12/31 10:27:54;;;;;;;32.63;23.90;;;;;;;10.44;76.51;100519.91;5091797;28;20081;-77
2023/12/31 10:30:21;;;;;;;30.45;22.23;;;;;;;10.56;75.40;100512.13;5073422;28;20028;-77
2023/12/31 10:32:47;;;;;;;33.70;23.85;;;;;;;10.65;75.71;100516.22;5088140;28;20067;-77
2023/12/31 10:35:18;;;;;;;31.88;21.20;;;;;;;10.79;75.54;100519.69;5071044;28;20085;-77
2023/12/31 10:37:43;;;;;;;31.95;22.17;;;;;;;10.51;75.65;100514.59;5071203;28;20043;-77
2023/12/31 10:40:22;;;;;;;31.17;20.70;;;;;;;10.73;73.81;100508.00;5071257;28;20032;-78
2023/12/31 10:42:55;;;;;;;27.30;19.13;;;;;;;10.59;74.38;100485.03;5071021;28;20021;-77
2023/12/31 10:45:21;;;;;;;39.38;24.48;;;;;;;10.97;72.83;100513.66;5070160;28;20051;-78
2023/12/31 10:47:52;;;;;;;74.70;55.60;;;;;;;10.74;73.26;100496.28;5089590;28;20035;-77
2023/12/31 10:50:23;;;;;;;28.65;20.23;;;;;;;10.60;71.16;100471.50;5091481;28;20032;-77
2023/12/31 10:52:53;;;;;;;28.50;18.33;;;;;;;11.22;69.84;100498.59;5089776;28;20023;-77
2023/12/31 10:55:19;;;;;;;61.90;37.08;;;;;;;10.84;70.32;100477.97;5070882;28;20036;-77
2023/12/31 10:57:46;;;;;;;39.55;23.17;;;;;;;10.82;70.25;100457.88;5052705;28;20420;-78
2023/12/31 11:00:12;;;;;;;39.00;25.30;;;;;;;10.98;70.00;100483.28;5053071;28;20346;-77
2023/12/31 11:02:37;;;;;;;35.60;24.83;;;;;;;11.49;69.09;100495.78;5071041;28;20028;-77
2023/12/31 11:05:03;;;;;;;28.25;20.52;;;;;;;11.40;67.97;100497.03;5070013;28;20043;-76